createdAt,value
2022-11-30T00:01:36.041Z,100304.06
2022-11-30T00:04:24.498Z,100300.66
2022-11-30T00:07:13.144Z,100309.25
2022-11-30T00:10:01.522Z,100304.16
2022-11-30T00:12:51.459Z,100305.09
2022-11-30T00:15:39.897Z,100302.47
2022-11-30T00:18:29.870Z,100301.63
2022-11-30T00:21:18.332Z,100301.53
2022-11-30T00:24:07.623Z,100294.72
2022-11-30T00:26:56.053Z,100297.28
2022-11-30T00:29:45.789Z,100298.16
2022-11-30T00:32:34.206Z,100290.50
2022-11-30T00:35:22.602Z,100293.13
2022-11-30T00:38:10.984Z,100281.09
2022-11-30T00:40:59.393Z,100292.25
2022-11-30T00:43:48.011Z,100287.97
2022-11-30T00:46:37.761Z,100291.44
2022-11-30T00:49:26.195Z,100294.84
2022-11-30T00:52:15.358Z,100299.16
2022-11-30T00:55:04.399Z,100294.03
2022-11-30T00:57:53.059Z,100295.72
2022-11-30T01:00:41.706Z,100293.13
2022-11-30T01:03:31.410Z,100300.84
2022-11-30T01:06:19.916Z,100300.78
2022-11-30T01:09:09.136Z,100302.66
2022-11-30T01:11:57.485Z,100311.97
2022-11-30T01:14:46.169Z,100314.63
2022-11-30T01:17:34.969Z,100310.44
2022-11-30T01:20:24.705Z,100315.50
2022-11-30T01:23:13.145Z,100310.31
2022-11-30T01:26:01.537Z,100312.88
2022-11-30T01:28:51.562Z,100305.94
2022-11-30T01:31:39.981Z,100311.03
2022-11-30T01:34:28.399Z,100316.16
2022-11-30T01:37:18.176Z,100310.16
2022-11-30T01:40:08.440Z,100318.66
2022-11-30T01:42:56.850Z,100314.34
2022-11-30T01:45:45.301Z,100320.34
2022-11-30T01:48:33.713Z,100315.16
2022-11-30T01:51:22.072Z,100315.13
2022-11-30T01:54:13.237Z,100306.53
2022-11-30T01:57:04.238Z,100303.13
2022-11-30T01:59:54.172Z,100308.25
2022-11-30T02:02:48.819Z,100303.25
2022-11-30T02:05:38.946Z,100315.28
2022-11-30T02:08:27.483Z,100318.72
2022-11-30T02:11:17.381Z,100310.16
2022-11-30T02:14:15.739Z,100315.31
2022-11-30T02:17:12.501Z,100316.06
2022-11-30T02:20:57.363Z,100307.47
2022-11-30T02:24:13.224Z,100303.41
2022-11-30T02:27:14.845Z,100312.03
2022-11-30T02:30:06.397Z,100312.16
2022-11-30T02:32:57.642Z,100317.25
2022-11-30T02:35:54.538Z,100317.22
2022-11-30T02:38:43.614Z,100322.31
2022-11-30T02:41:38.423Z,100310.31
2022-11-30T02:44:26.890Z,100318.69
2022-11-30T02:47:22.582Z,100314.38
2022-11-30T02:50:14.411Z,100316.06
2022-11-30T02:53:02.806Z,100321.94
2022-11-30T02:55:51.189Z,100321.91
2022-11-30T02:58:39.713Z,100324.50
2022-11-30T03:01:28.315Z,100319.34
2022-11-30T03:04:18.137Z,100313.34
2022-11-30T03:07:06.698Z,100315.13
2022-11-30T03:09:55.241Z,100316.00
2022-11-30T03:12:43.677Z,100320.34
2022-11-30T03:15:32.160Z,100316.13
2022-11-30T03:18:20.569Z,100322.97
2022-11-30T03:21:11.116Z,100327.22
2022-11-30T03:23:59.597Z,100329.75
2022-11-30T03:26:47.979Z,100320.34
2022-11-30T03:29:36.406Z,100334.84
2022-11-30T03:32:25.017Z,100324.53
2022-11-30T03:35:13.614Z,100336.53
2022-11-30T03:38:03.307Z,100328.78
2022-11-30T03:40:51.719Z,100327.00
2022-11-30T03:43:40.095Z,100331.25
2022-11-30T03:46:28.497Z,100329.47
2022-11-30T03:49:16.919Z,100331.22
2022-11-30T03:52:05.653Z,100334.56
2022-11-30T03:54:55.450Z,100330.25
2022-11-30T03:57:43.854Z,100332.03
2022-11-30T04:00:32.270Z,100326.94
2022-11-30T04:03:20.651Z,100331.25
2022-11-30T04:06:10.398Z,100332.97
2022-11-30T04:08:58.768Z,100335.50
2022-11-30T04:11:48.498Z,100343.19
2022-11-30T04:14:36.886Z,100340.56
2022-11-30T04:17:25.279Z,100339.63
2022-11-30T04:20:14.088Z,100338.69
2022-11-30T04:23:02.467Z,100332.66
2022-11-30T04:25:51.843Z,100337.81
2022-11-30T04:28:41.805Z,100341.22
2022-11-30T04:31:30.430Z,100339.47
2022-11-30T04:34:18.872Z,100338.66
2022-11-30T04:37:07.575Z,100330.91
2022-11-30T04:39:56.006Z,100330.00
2022-11-30T04:42:44.424Z,100331.75
2022-11-30T04:45:35.742Z,100331.72
2022-11-30T04:48:24.519Z,100333.41
2022-11-30T04:51:12.994Z,100333.50
2022-11-30T04:54:01.420Z,100333.50
2022-11-30T04:56:49.990Z,100333.53
2022-11-30T04:59:38.361Z,100331.88
2022-11-30T05:02:30.049Z,100340.47
2022-11-30T05:05:18.657Z,100338.69
2022-11-30T05:08:07.224Z,100348.81
2022-11-30T05:10:55.867Z,100343.66
2022-11-30T05:13:44.233Z,100345.31
2022-11-30T05:16:32.690Z,100349.47
2022-11-30T05:19:22.454Z,100351.19
2022-11-30T05:22:10.854Z,100346.91
2022-11-30T05:24:59.229Z,100349.53
2022-11-30T05:27:47.586Z,100356.41
2022-11-30T05:30:35.987Z,100352.97
2022-11-30T05:33:24.373Z,100350.38
2022-11-30T05:36:14.116Z,100355.53
2022-11-30T05:39:02.500Z,100350.38
2022-11-30T05:41:50.932Z,100352.16
2022-11-30T05:44:39.363Z,100348.69
2022-11-30T05:47:27.760Z,100347.00
2022-11-30T05:50:16.423Z,100353.00
2022-11-30T05:53:06.196Z,100355.56
2022-11-30T05:55:54.707Z,100359.94
2022-11-30T05:58:43.130Z,100362.53
2022-11-30T06:01:31.622Z,100359.13
2022-11-30T06:04:20.030Z,100360.88
2022-11-30T06:07:11.811Z,100348.03
2022-11-30T06:10:01.595Z,100359.16
2022-11-30T06:12:50.204Z,100361.75
2022-11-30T06:15:38.754Z,100356.69
2022-11-30T06:18:27.143Z,100355.91
2022-11-30T06:21:19.639Z,100358.47
2022-11-30T06:24:11.232Z,100356.81
2022-11-30T06:27:00.960Z,100356.84
2022-11-30T06:29:49.389Z,100359.44
2022-11-30T06:32:37.976Z,100360.34
2022-11-30T06:35:26.539Z,100357.03
2022-11-30T06:38:14.897Z,100357.88
2022-11-30T06:41:06.787Z,100357.09
2022-11-30T06:43:56.604Z,100355.34
2022-11-30T06:46:45.039Z,100366.56
2022-11-30T06:49:33.502Z,100364.94
2022-11-30T06:52:23.822Z,100365.00
2022-11-30T06:55:29.073Z,100362.44
2022-11-30T06:58:37.204Z,100365.91
2022-11-30T07:01:30.241Z,100365.94
2022-11-30T07:03:58.394Z,100367.63
2022-11-30T07:06:26.598Z,100376.22
2022-11-30T07:08:54.718Z,100371.91
2022-11-30T07:11:22.902Z,100383.88
2022-11-30T07:13:50.983Z,100382.19
2022-11-30T07:16:19.150Z,100379.66
2022-11-30T07:18:48.649Z,100381.34
2022-11-30T07:21:16.746Z,100381.38
2022-11-30T07:24:02.376Z,100375.44
2022-11-30T07:26:30.546Z,100381.41
2022-11-30T07:28:59.056Z,100381.41
2022-11-30T07:31:28.828Z,100389.22
2022-11-30T07:33:59.630Z,100387.44
2022-11-30T07:36:29.575Z,100383.06
2022-11-30T07:38:57.697Z,100379.50
2022-11-30T07:41:26.079Z,100378.56
2022-11-30T07:43:54.171Z,100378.56
2022-11-30T07:46:22.368Z,100388.94
2022-11-30T07:48:50.692Z,100388.13
2022-11-30T07:51:21.232Z,100387.44
2022-11-30T07:53:49.743Z,100391.56
2022-11-30T07:56:19.936Z,100392.38
2022-11-30T07:58:48.584Z,100393.16
2022-11-30T08:01:18.532Z,100395.69
2022-11-30T08:03:47.108Z,100396.47
2022-11-30T08:06:17.110Z,100399.91
2022-11-30T08:08:47.034Z,100404.94
2022-11-30T08:11:16.551Z,100404.91
2022-11-30T08:13:44.945Z,100399.66
2022-11-30T08:16:15.268Z,100399.59
2022-11-30T08:18:43.609Z,100398.63
2022-11-30T08:21:13.122Z,100412.38
2022-11-30T08:23:42.727Z,100402.16
2022-11-30T08:26:14.470Z,100410.78
2022-11-30T08:28:42.916Z,100407.41
2022-11-30T08:31:13.303Z,100416.06
2022-11-30T08:33:41.618Z,100413.56
2022-11-30T08:36:10.371Z,100417.91
2022-11-30T08:38:38.684Z,100419.53
2022-11-30T08:41:07.400Z,100420.41
2022-11-30T08:43:36.922Z,100425.56
2022-11-30T08:46:21.594Z,100427.22
2022-11-30T08:49:12.880Z,100426.28
2022-11-30T08:52:15.315Z,100431.31
2022-11-30T08:54:32.300Z,100432.03
2022-11-30T08:57:00.454Z,100425.91
2022-11-30T08:59:32.171Z,100430.09
2022-11-30T09:02:00.353Z,100432.56
2022-11-30T09:04:28.609Z,100434.25
2022-11-30T09:06:59.030Z,100429.97
2022-11-30T09:09:27.460Z,100432.56
2022-11-30T09:11:55.602Z,100439.50
2022-11-30T09:14:23.902Z,100437.97
2022-11-30T09:16:54.048Z,100439.97
2022-11-30T09:19:22.269Z,100446.88
2022-11-30T09:21:52.259Z,100450.28
2022-11-30T09:24:20.927Z,100452.03
2022-11-30T09:26:49.140Z,100448.66
2022-11-30T09:29:17.262Z,100445.28
2022-11-30T09:31:45.557Z,100450.44
2022-11-30T09:34:15.028Z,100440.03
2022-11-30T09:36:43.201Z,100446.88
2022-11-30T09:39:12.649Z,100450.28
2022-11-30T09:42:14.944Z,100439.97
2022-11-30T09:44:50.599Z,100436.59
2022-11-30T09:47:43.377Z,100444.91
2022-11-30T09:50:15.629Z,100446.47
2022-11-30T09:52:47.609Z,100443.84
2022-11-30T09:55:22.525Z,100443.72
2022-11-30T09:57:53.233Z,100438.47
2022-11-30T10:00:23.144Z,100440.03
2022-11-30T10:02:52.250Z,100437.38
2022-11-30T10:05:23.667Z,100435.56
2022-11-30T10:08:18.207Z,100431.38
2022-11-30T10:10:52.438Z,100442.41
2022-11-30T10:13:44.916Z,100440.63
2022-11-30T10:16:17.315Z,100437.16
2022-11-30T10:18:51.792Z,100437.06
2022-11-30T10:21:33.769Z,100434.28
2022-11-30T10:24:13.543Z,100429.97
2022-11-30T10:26:44.301Z,100447.06
2022-11-30T10:29:18.850Z,100435.78
2022-11-30T10:31:48.368Z,100429.75
2022-11-30T10:34:21.679Z,100424.31
2022-11-30T10:36:54.869Z,100438.69
2022-11-30T10:39:27.386Z,100439.38
2022-11-30T10:42:00.190Z,100422.03
2022-11-30T10:44:29.874Z,100421.09
2022-11-30T10:47:01.453Z,100414.09
2022-11-30T10:49:30.382Z,100420.84
2022-11-30T10:52:02.466Z,100411.31
2022-11-30T10:54:30.942Z,100408.84
2022-11-30T10:57:00.996Z,100409.72
2022-11-30T10:59:36.433Z,100403.75
2022-11-30T11:02:06.869Z,100405.97
2022-11-30T11:04:35.165Z,100399.81
2022-11-30T11:07:10.011Z,100397.34
2022-11-30T11:09:39.845Z,100397.44
2022-11-30T11:12:14.927Z,100399.94
2022-11-30T11:14:43.158Z,100405.97
2022-11-30T11:17:23.481Z,100397.34
2022-11-30T11:19:52.091Z,100400.59
2022-11-30T11:22:22.700Z,100397.00
2022-11-30T11:24:52.027Z,100400.38
2022-11-30T11:27:27.495Z,100390.91
2022-11-30T11:30:03.046Z,100396.81
2022-11-30T11:32:31.406Z,100384.59
2022-11-30T11:34:59.589Z,100387.75
2022-11-30T11:37:31.482Z,100380.84
2022-11-30T11:40:06.198Z,100390.72
2022-11-30T11:42:38.375Z,100389.63
2022-11-30T11:45:07.911Z,100385.19
2022-11-30T11:47:41.279Z,100395.31
2022-11-30T11:51:04.444Z,100385.88
2022-11-30T11:53:24.974Z,100393.31
2022-11-30T11:55:56.731Z,100395.69
2022-11-30T11:58:33.893Z,100397.13
2022-11-30T12:01:31.458Z,100395.19
2022-11-30T12:04:01.777Z,100397.47
2022-11-30T12:06:29.996Z,100389.53
2022-11-30T12:09:01.890Z,100395.31
2022-11-30T12:11:32.907Z,100390.06
2022-11-30T12:14:01.744Z,100396.88
2022-11-30T12:16:38.085Z,100397.13
2022-11-30T12:19:13.509Z,100398.94
2022-11-30T12:21:52.647Z,100395.56
2022-11-30T12:24:49.179Z,100403.41
2022-11-30T12:27:23.485Z,100399.38
2022-11-30T12:30:00.702Z,100395.31
2022-11-30T12:32:35.823Z,100397.94
2022-11-30T12:35:14.526Z,100399.94
2022-11-30T12:37:51.403Z,100393.09
2022-11-30T12:40:31.081Z,100404.03
2022-11-30T12:43:05.769Z,100400.47
2022-11-30T12:45:37.266Z,100402.91
2022-11-30T12:48:17.214Z,100397.63
2022-11-30T12:50:53.326Z,100391.50
2022-11-30T12:53:24.930Z,100400.03
2022-11-30T12:56:04.718Z,100393.22
2022-11-30T12:58:41.640Z,100388.81
2022-11-30T13:01:20.221Z,100386.28
2022-11-30T13:04:00.233Z,100401.44
2022-11-30T13:06:31.252Z,100388.59
2022-11-30T13:09:02.219Z,100396.22
2022-11-30T13:11:35.893Z,100390.88
2022-11-30T13:14:05.104Z,100395.09
2022-11-30T13:16:33.337Z,100399.38
2022-11-30T13:19:16.488Z,100394.31
2022-11-30T13:21:50.260Z,100390.16
2022-11-30T13:24:23.596Z,100392.63
2022-11-30T13:26:55.976Z,100392.56
2022-11-30T13:29:52.342Z,100390.09
2022-11-30T13:32:56.268Z,100398.81
2022-11-30T13:35:42.491Z,100398.03
2022-11-30T13:41:08.307Z,100396.28
2022-11-30T13:43:40.707Z,100399.72
2022-11-30T13:46:17.199Z,100403.13
2022-11-30T13:48:45.707Z,100403.97
2022-11-30T13:51:14.048Z,100397.97
2022-11-30T13:53:42.360Z,100400.47
2022-11-30T13:56:34.071Z,100405.53
2022-11-30T13:59:36.229Z,100400.47
2022-11-30T14:02:53.764Z,100402.31
2022-11-30T14:05:24.796Z,100397.22
2022-11-30T14:08:37.039Z,100406.94
2022-11-30T14:11:40.141Z,100407.78
2022-11-30T14:14:47.212Z,100409.56
2022-11-30T14:17:21.136Z,100407.06
2022-11-30T14:19:52.013Z,100409.56
2022-11-30T14:22:20.198Z,100411.28
2022-11-30T14:24:49.176Z,100417.31
2022-11-30T14:27:21.549Z,100413.84
2022-11-30T14:29:53.642Z,100418.22
2022-11-30T14:32:30.972Z,100424.34
2022-11-30T14:35:08.837Z,100415.81
2022-11-30T14:37:42.393Z,100422.72
2022-11-30T14:40:19.057Z,100421.13
2022-11-30T14:42:52.372Z,100416.00
2022-11-30T14:45:23.762Z,100419.41
2022-11-30T14:47:53.697Z,100417.00
2022-11-30T14:50:25.154Z,100419.75
2022-11-30T14:53:04.329Z,100423.25
2022-11-30T14:55:36.388Z,100422.50
2022-11-30T14:58:14.353Z,100415.63
2022-11-30T15:00:44.874Z,100414.00
2022-11-30T15:03:21.440Z,100415.75
2022-11-30T15:05:52.810Z,100415.88
2022-11-30T15:08:20.905Z,100417.66
2022-11-30T15:10:49.024Z,100417.75
2022-11-30T15:13:18.516Z,100410.13
2022-11-30T15:15:55.020Z,100416.22
2022-11-30T15:18:23.643Z,100417.13
2022-11-30T15:20:55.776Z,100418.03
2022-11-30T15:23:24.088Z,100420.78
2022-11-30T15:25:53.575Z,100413.06
2022-11-30T15:28:24.092Z,100416.50
2022-11-30T15:30:56.405Z,100420.13
2022-11-30T15:33:25.179Z,100422.00
2022-11-30T15:36:18.807Z,100429.13
2022-11-30T15:38:44.894Z,100435.50
2022-11-30T15:41:19.434Z,100437.31
2022-11-30T15:43:51.308Z,100436.63
2022-11-30T15:46:36.829Z,100429.06
2022-11-30T15:49:17.886Z,100435.84
2022-11-30T15:51:47.117Z,100436.69
2022-11-30T15:54:15.483Z,100437.53
2022-11-30T15:56:55.928Z,100439.38
2022-11-30T15:59:25.426Z,100438.38
2022-11-30T16:02:02.011Z,100438.50
2022-11-30T16:04:30.812Z,100439.53
2022-11-30T16:06:58.935Z,100438.03
2022-11-30T16:09:32.408Z,100453.69
2022-11-30T16:12:02.563Z,100453.84
2022-11-30T16:14:31.032Z,100452.25
2022-11-30T16:17:04.174Z,100459.19
2022-11-30T16:19:36.777Z,100456.72
2022-11-30T16:22:04.935Z,100458.59
2022-11-30T16:24:33.124Z,100462.16
2022-11-30T16:27:01.253Z,100463.94
2022-11-30T16:29:29.428Z,100468.31
2022-11-30T16:31:57.603Z,100458.03
2022-11-30T16:34:27.199Z,100463.22
2022-11-30T16:36:55.382Z,100464.97
2022-11-30T16:39:23.525Z,100468.38
2022-11-30T16:41:51.725Z,100468.44
2022-11-30T16:44:19.834Z,100467.63
2022-11-30T16:46:48.652Z,100474.44
2022-11-30T16:49:16.805Z,100470.94
2022-11-30T16:51:46.269Z,100469.25
2022-11-30T16:54:15.552Z,100472.75
2022-11-30T16:56:43.889Z,100472.94
2022-11-30T16:59:16.403Z,100474.03
2022-11-30T17:01:47.241Z,100477.56
2022-11-30T17:04:17.869Z,100480.22
2022-11-30T17:06:50.542Z,100483.81
2022-11-30T17:09:20.244Z,100484.72
2022-11-30T17:11:50.344Z,100491.59
2022-11-30T17:14:18.935Z,100483.13
2022-11-30T17:16:47.130Z,100492.41
2022-11-30T17:19:15.488Z,100495.78
2022-11-30T17:21:44.585Z,100494.09
2022-11-30T17:24:14.323Z,100500.13
2022-11-30T17:26:42.560Z,100506.19
2022-11-30T17:29:10.677Z,100504.47
2022-11-30T17:31:38.790Z,100504.47
2022-11-30T17:34:08.494Z,100502.81
2022-11-30T17:36:36.706Z,100502.81
2022-11-30T17:39:06.848Z,100508.78
2022-11-30T17:41:36.347Z,100508.78
2022-11-30T17:44:04.528Z,100505.31
2022-11-30T17:46:32.716Z,100503.63
2022-11-30T17:49:00.897Z,100506.19
2022-11-30T17:51:29.135Z,100502.69
2022-11-30T17:53:57.354Z,100506.09
2022-11-30T17:56:25.949Z,100513.91
2022-11-30T17:58:55.459Z,100519.91
2022-11-30T18:01:25.040Z,100519.09
2022-11-30T18:03:53.624Z,100513.97
2022-11-30T18:06:21.878Z,100515.81
2022-11-30T18:08:50.006Z,100511.66
2022-11-30T18:11:20.150Z,100512.84
2022-11-30T18:13:48.456Z,100515.59
2022-11-30T18:16:19.137Z,100521.78
2022-11-30T18:18:48.622Z,100515.03
2022-11-30T18:21:18.754Z,100519.41
2022-11-30T18:23:47.162Z,100526.38
2022-11-30T18:26:17.755Z,100527.34
2022-11-30T18:28:45.914Z,100530.88
2022-11-30T18:31:14.123Z,100532.75
2022-11-30T18:33:43.672Z,100531.25
2022-11-30T18:36:11.863Z,100535.81
2022-11-30T18:38:41.506Z,100535.13
2022-11-30T18:41:09.664Z,100540.47
2022-11-30T18:43:38.837Z,100538.06
2022-11-30T18:46:08.678Z,100534.78
2022-11-30T18:48:37.052Z,100544.25
2022-11-30T18:51:12.588Z,100537.50
2022-11-30T18:53:40.745Z,100535.03
2022-11-30T18:56:10.981Z,100538.47
2022-11-30T18:58:39.137Z,100535.13
2022-11-30T19:01:09.321Z,100536.88
2022-11-30T19:03:37.974Z,100545.44
2022-11-30T19:06:06.912Z,100543.69
2022-11-30T19:08:36.609Z,100540.28
2022-11-30T19:11:05.593Z,100547.06
2022-11-30T19:13:34.103Z,100545.22
2022-11-30T19:16:03.389Z,100545.22
2022-11-30T19:18:31.481Z,100552.09
2022-11-30T19:20:59.811Z,100556.31
2022-11-30T19:23:28.105Z,100556.22
2022-11-30T19:26:02.112Z,100558.78
2022-11-30T19:28:30.768Z,100556.31
2022-11-30T19:30:59.000Z,100561.53
2022-11-30T19:33:27.436Z,100563.28
2022-11-30T19:36:01.415Z,100567.50
2022-11-30T19:38:29.623Z,100563.19
2022-11-30T19:40:57.719Z,100576.94
2022-11-30T19:43:27.243Z,100572.66
2022-11-30T19:45:55.482Z,100577.78
2022-11-30T19:48:23.612Z,100580.41
2022-11-30T19:50:51.707Z,100580.41
2022-11-30T19:53:20.308Z,100574.44
2022-11-30T19:55:48.466Z,100579.59
2022-11-30T19:58:16.598Z,100583.97
2022-11-30T20:00:47.911Z,100582.34
2022-11-30T20:03:16.358Z,100579.88
2022-11-30T20:05:50.135Z,100591.00
2022-11-30T20:08:18.300Z,100585.84
2022-11-30T20:10:46.539Z,100587.53
2022-11-30T20:13:14.694Z,100589.22
2022-11-30T20:15:43.016Z,100585.75
2022-11-30T20:18:13.030Z,100586.53
2022-11-30T20:20:41.197Z,100590.75
2022-11-30T20:23:09.324Z,100594.06
2022-11-30T20:25:37.455Z,100597.41
2022-11-30T20:28:09.651Z,100595.66
2022-11-30T20:30:40.516Z,100594.75
2022-11-30T20:33:08.700Z,100590.38
2022-11-30T20:35:38.261Z,100595.53
2022-11-30T20:38:06.422Z,100594.66
2022-11-30T20:40:37.564Z,100588.75
2022-11-30T20:43:05.950Z,100589.53
2022-11-30T20:45:34.100Z,100593.78
2022-11-30T20:48:02.638Z,100600.56
2022-11-30T20:50:30.869Z,100603.94
2022-11-30T20:53:00.329Z,100595.34
2022-11-30T20:55:28.461Z,100589.31
2022-11-30T20:57:56.627Z,100593.56
2022-11-30T21:00:24.940Z,100587.53
2022-11-30T21:02:53.046Z,100591.84
2022-11-30T21:05:40.110Z,100597.91
2022-11-30T21:08:31.640Z,100599.66
2022-11-30T21:11:21.297Z,100599.75
2022-11-30T21:14:10.427Z,100595.47
2022-11-30T21:16:58.826Z,100602.38
2022-11-30T21:19:47.242Z,100598.91
2022-11-30T21:22:35.639Z,100604.88
2022-11-30T21:25:25.399Z,100604.91
2022-11-30T21:28:13.800Z,100607.56
2022-11-30T21:31:04.273Z,100614.47
2022-11-30T21:33:53.805Z,100609.28
2022-11-30T21:36:42.508Z,100614.41
2022-11-30T21:39:31.053Z,100612.75
2022-11-30T21:42:20.834Z,100611.06
2022-11-30T21:45:11.090Z,100617.06
2022-11-30T21:47:59.498Z,100606.88
2022-11-30T21:50:47.924Z,100609.44
2022-11-30T21:53:38.102Z,100612.00
2022-11-30T21:56:28.188Z,100614.63
2022-11-30T21:59:17.948Z,100606.19
2022-11-30T22:02:06.358Z,100606.31
2022-11-30T22:04:54.765Z,100609.81
2022-11-30T22:07:43.391Z,100609.91
2022-11-30T22:10:32.649Z,100607.25
2022-11-30T22:13:21.181Z,100612.34
2022-11-30T22:16:14.082Z,100612.25
2022-11-30T22:19:02.575Z,100616.56
2022-11-30T22:21:51.166Z,100610.66
2022-11-30T22:24:39.728Z,100613.31
2022-11-30T22:27:28.101Z,100618.47
2022-11-30T22:30:16.993Z,100614.25
2022-11-30T22:33:06.727Z,100616.78
2022-11-30T22:35:55.335Z,100619.34
2022-11-30T22:38:43.787Z,100619.28
2022-11-30T22:41:32.275Z,100627.03
2022-11-30T22:44:20.905Z,100615.88
2022-11-30T22:47:09.372Z,100624.41
2022-11-30T22:49:59.269Z,100616.69
2022-11-30T22:53:03.049Z,100616.59
2022-11-30T22:55:51.990Z,100608.91
2022-11-30T22:58:40.824Z,100602.06
2022-11-30T23:01:30.399Z,100616.56
2022-11-30T23:04:20.195Z,100607.94
2022-11-30T23:07:10.080Z,100616.50
2022-11-30T23:09:58.508Z,100612.22
2022-11-30T23:13:01.956Z,100606.28
2022-11-30T23:15:50.857Z,100610.66
2022-11-30T23:18:41.464Z,100603.91
2022-11-30T23:21:32.757Z,100605.66
2022-11-30T23:24:25.774Z,100610.00
2022-11-30T23:27:14.150Z,100609.09
2022-11-30T23:30:02.661Z,100614.25
2022-11-30T23:32:55.671Z,100610.00
2022-11-30T23:35:44.548Z,100606.53
2022-11-30T23:38:33.066Z,100606.53
2022-11-30T23:41:22.841Z,100615.94
2022-11-30T23:44:11.810Z,100598.81
2022-11-30T23:47:00.631Z,100606.56
2022-11-30T23:49:49.798Z,100604.88
2022-11-30T23:52:38.378Z,100602.41
2022-11-30T23:55:26.864Z,100598.16
2022-11-30T23:58:16.604Z,100593.09
